Terminal Aerodrome Forecast
Issued by NWS

Home | Current Version | Previous Version | Text Only | Print | Product List | Glossary On
Versions: 1 2 3 4 5 6 7 8 9 10 11 12 13 14
000
FTUS44 KLIX 281100
TAFMSY
TAF
KMSY 281135Z 2812/2912 18005KT 1/2SM FG OVC005
     FM281500 29006KT 4SM SHRA BR OVC005
     FM281800 32007KT P6SM SHRA OVC008
     FM290000 34008KT P6SM OVC005=

USA.gov is the U.S. government's official web portal to all federal, state and local government web resources and services.